sensor_id;sensor_type;location;lat;lon;timestamp;temperature;humidity
32865;DHT22;19219;44.500;11.188;2022-10-16T00:01:19;16.00;99.90
32865;DHT22;19219;44.500;11.188;2022-10-16T00:03:46;16.00;99.90
32865;DHT22;19219;44.500;11.188;2022-10-16T00:06:13;16.10;99.90
32865;DHT22;19219;44.500;11.188;2022-10-16T00:08:39;16.10;99.90
32865;DHT22;19219;44.500;11.188;2022-10-16T00:11:11;16.10;99.90
32865;DHT22;19219;44.500;11.188;2022-10-16T00:13:39;16.10;99.90
32865;DHT22;19219;44.500;11.188;2022-10-16T00:16:06;16.10;99.90
32865;DHT22;19219;44.500;11.188;2022-10-16T00:18:32;16.10;99.90
32865;DHT22;19219;44.500;11.188;2022-10-16T00:21:05;16.20;99.90
32865;DHT22;19219;44.500;11.188;2022-10-16T00:23:31;16.10;99.90
32865;DHT22;19219;44.500;11.188;2022-10-16T00:26:00;16.10;99.90
32865;DHT22;19219;44.500;11.188;2022-10-16T00:28:26;16.10;99.90
32865;DHT22;19219;44.500;11.188;2022-10-16T00:30:52;16.10;99.90
32865;DHT22;19219;44.500;11.188;2022-10-16T00:33:18;16.10;99.90
32865;DHT22;19219;44.500;11.188;2022-10-16T00:35:44;16.10;99.90
32865;DHT22;19219;44.500;11.188;2022-10-16T00:38:10;16.10;99.90
32865;DHT22;19219;44.500;11.188;2022-10-16T00:40:35;16.10;99.90
32865;DHT22;19219;44.500;11.188;2022-10-16T00:43:01;16.10;99.90
32865;DHT22;19219;44.500;11.188;2022-10-16T00:45:27;16.10;99.90
32865;DHT22;19219;44.500;11.188;2022-10-16T00:47:54;16.10;99.90
32865;DHT22;19219;44.500;11.188;2022-10-16T00:50:28;16.10;99.90
32865;DHT22;19219;44.500;11.188;2022-10-16T00:52:55;16.10;99.90
32865;DHT22;19219;44.500;11.188;2022-10-16T00:55:22;16.20;99.90
32865;DHT22;19219;44.500;11.188;2022-10-16T00:57:50;16.10;99.90
32865;DHT22;19219;44.500;11.188;2022-10-16T01:00:20;16.10;99.90
32865;DHT22;19219;44.500;11.188;2022-10-16T01:02:56;16.10;99.90
32865;DHT22;19219;44.500;11.188;2022-10-16T01:05:23;16.00;99.90
32865;DHT22;19219;44.500;11.188;2022-10-16T01:07:59;16.00;99.90
32865;DHT22;19219;44.500;11.188;2022-10-16T01:13:01;15.90;99.90
32865;DHT22;19219;44.500;11.188;2022-10-16T01:18:39;15.80;99.90
32865;DHT22;19219;44.500;11.188;2022-10-16T01:21:26;15.80;99.90
32865;DHT22;19219;44.500;11.188;2022-10-16T01:40:24;15.90;99.90
32865;DHT22;19219;44.500;11.188;2022-10-16T01:43:04;15.90;99.90
32865;DHT22;19219;44.500;11.188;2022-10-16T01:45:33;15.90;99.90
32865;DHT22;19219;44.500;11.188;2022-10-16T01:48:01;15.90;99.90
32865;DHT22;19219;44.500;11.188;2022-10-16T01:50:32;16.00;99.90
32865;DHT22;19219;44.500;11.188;2022-10-16T01:52:59;16.10;99.90
32865;DHT22;19219;44.500;11.188;2022-10-16T01:55:33;16.20;99.90
32865;DHT22;19219;44.500;11.188;2022-10-16T01:58:02;16.20;99.90
32865;DHT22;19219;44.500;11.188;2022-10-16T02:00:29;16.20;99.90
32865;DHT22;19219;44.500;11.188;2022-10-16T02:02:57;16.30;99.90
32865;DHT22;19219;44.500;11.188;2022-10-16T02:05:31;16.30;99.90
32865;DHT22;19219;44.500;11.188;2022-10-16T02:07:58;16.30;99.90
32865;DHT22;19219;44.500;11.188;2022-10-16T02:10:24;16.30;99.90
32865;DHT22;19219;44.500;11.188;2022-10-16T02:12:59;16.30;99.90
32865;DHT22;19219;44.500;11.188;2022-10-16T02:15:26;16.40;99.90
32865;DHT22;19219;44.500;11.188;2022-10-16T02:17:52;16.40;99.90
32865;DHT22;19219;44.500;11.188;2022-10-16T02:20:20;16.50;99.90
32865;DHT22;19219;44.500;11.188;2022-10-16T02:22:50;16.50;99.90
32865;DHT22;19219;44.500;11.188;2022-10-16T02:25:46;16.50;99.90
32865;DHT22;19219;44.500;11.188;2022-10-16T02:28:17;16.40;99.90
32865;DHT22;19219;44.500;11.188;2022-10-16T02:31:04;16.30;99.90
32865;DHT22;19219;44.500;11.188;2022-10-16T02:33:33;16.30;99.90
32865;DHT22;19219;44.500;11.188;2022-10-16T02:36:01;16.20;99.90
32865;DHT22;19219;44.500;11.188;2022-10-16T02:38:28;16.10;99.90
32865;DHT22;19219;44.500;11.188;2022-10-16T02:40:55;16.10;99.90
32865;DHT22;19219;44.500;11.188;2022-10-16T02:43:21;15.90;99.90
32865;DHT22;19219;44.500;11.188;2022-10-16T02:45:47;15.90;99.90
32865;DHT22;19219;44.500;11.188;2022-10-16T02:48:12;15.80;99.90
32865;DHT22;19219;44.500;11.188;2022-10-16T02:50:38;15.70;99.90
32865;DHT22;19219;44.500;11.188;2022-10-16T02:53:04;15.60;99.90
32865;DHT22;19219;44.500;11.188;2022-10-16T02:55:29;15.60;99.90
32865;DHT22;19219;44.500;11.188;2022-10-16T02:57:55;15.60;99.90
32865;DHT22;19219;44.500;11.188;2022-10-16T03:00:21;15.60;99.90
32865;DHT22;19219;44.500;11.188;2022-10-16T03:02:46;15.60;99.90
32865;DHT22;19219;44.500;11.188;2022-10-16T03:05:13;15.50;99.90
32865;DHT22;19219;44.500;11.188;2022-10-16T03:07:39;15.50;99.90
32865;DHT22;19219;44.500;11.188;2022-10-16T03:10:05;15.40;99.90
32865;DHT22;19219;44.500;11.188;2022-10-16T03:12:31;15.40;99.90
32865;DHT22;19219;44.500;11.188;2022-10-16T03:14:57;15.50;99.90
32865;DHT22;19219;44.500;11.188;2022-10-16T03:17:24;15.40;99.90
32865;DHT22;19219;44.500;11.188;2022-10-16T03:19:50;15.30;99.90
32865;DHT22;19219;44.500;11.188;2022-10-16T03:22:15;15.30;99.90
32865;DHT22;19219;44.500;11.188;2022-10-16T03:24:41;15.20;99.90
32865;DHT22;19219;44.500;11.188;2022-10-16T03:27:07;15.10;99.90
32865;DHT22;19219;44.500;11.188;2022-10-16T03:29:32;15.10;99.90
32865;DHT22;19219;44.500;11.188;2022-10-16T03:31:58;15.00;99.90
32865;DHT22;19219;44.500;11.188;2022-10-16T03:34:24;15.00;99.90
32865;DHT22;19219;44.500;11.188;2022-10-16T03:36:51;15.00;99.90
32865;DHT22;19219;44.500;11.188;2022-10-16T03:39:16;15.00;99.90
32865;DHT22;19219;44.500;11.188;2022-10-16T03:41:42;15.10;99.90
32865;DHT22;19219;44.500;11.188;2022-10-16T03:44:08;15.10;99.90
32865;DHT22;19219;44.500;11.188;2022-10-16T03:46:33;15.10;99.90
32865;DHT22;19219;44.500;11.188;2022-10-16T03:48:59;15.10;99.90
32865;DHT22;19219;44.500;11.188;2022-10-16T03:51:24;15.00;99.90
32865;DHT22;19219;44.500;11.188;2022-10-16T03:53:50;14.80;99.90
32865;DHT22;19219;44.500;11.188;2022-10-16T03:56:15;14.80;99.90
32865;DHT22;19219;44.500;11.188;2022-10-16T03:58:41;14.90;99.90
32865;DHT22;19219;44.500;11.188;2022-10-16T04:01:07;14.90;99.90
32865;DHT22;19219;44.500;11.188;2022-10-16T04:03:33;14.90;99.90
32865;DHT22;19219;44.500;11.188;2022-10-16T04:05:58;14.90;99.90
32865;DHT22;19219;44.500;11.188;2022-10-16T04:08:24;14.90;99.90
32865;DHT22;19219;44.500;11.188;2022-10-16T04:10:49;14.80;99.90
32865;DHT22;19219;44.500;11.188;2022-10-16T04:13:16;14.70;99.90
32865;DHT22;19219;44.500;11.188;2022-10-16T04:15:42;14.80;99.90
32865;DHT22;19219;44.500;11.188;2022-10-16T04:18:07;14.80;99.90
32865;DHT22;19219;44.500;11.188;2022-10-16T04:20:34;14.80;99.90
32865;DHT22;19219;44.500;11.188;2022-10-16T04:22:59;14.80;99.90
32865;DHT22;19219;44.500;11.188;2022-10-16T04:25:25;14.80;99.90
32865;DHT22;19219;44.500;11.188;2022-10-16T04:27:53;14.70;99.90
32865;DHT22;19219;44.500;11.188;2022-10-16T04:30:19;14.70;99.90
32865;DHT22;19219;44.500;11.188;2022-10-16T04:32:48;14.70;99.90
32865;DHT22;19219;44.500;11.188;2022-10-16T04:35:14;14.70;99.90
32865;DHT22;19219;44.500;11.188;2022-10-16T04:37:40;14.60;99.90
32865;DHT22;19219;44.500;11.188;2022-10-16T04:40:06;14.60;99.90
32865;DHT22;19219;44.500;11.188;2022-10-16T04:42:32;14.60;99.90
32865;DHT22;19219;44.500;11.188;2022-10-16T04:44:57;14.50;99.90
32865;DHT22;19219;44.500;11.188;2022-10-16T04:47:23;14.50;99.90
32865;DHT22;19219;44.500;11.188;2022-10-16T04:49:49;14.50;99.90
32865;DHT22;19219;44.500;11.188;2022-10-16T04:52:14;14.40;99.90
32865;DHT22;19219;44.500;11.188;2022-10-16T04:54:40;14.40;99.90
32865;DHT22;19219;44.500;11.188;2022-10-16T04:57:06;14.30;99.90
32865;DHT22;19219;44.500;11.188;2022-10-16T04:59:31;14.30;99.90
32865;DHT22;19219;44.500;11.188;2022-10-16T05:01:57;14.20;99.90
32865;DHT22;19219;44.500;11.188;2022-10-16T05:04:23;14.20;99.90
32865;DHT22;19219;44.500;11.188;2022-10-16T05:06:49;14.20;99.90
32865;DHT22;19219;44.500;11.188;2022-10-16T05:09:14;14.10;99.90
32865;DHT22;19219;44.500;11.188;2022-10-16T05:11:40;14.20;99.90
32865;DHT22;19219;44.500;11.188;2022-10-16T05:14:06;14.10;99.90
32865;DHT22;19219;44.500;11.188;2022-10-16T05:16:31;14.10;99.90
32865;DHT22;19219;44.500;11.188;2022-10-16T05:18:57;14.10;99.90
32865;DHT22;19219;44.500;11.188;2022-10-16T05:21:23;14.00;99.90
32865;DHT22;19219;44.500;11.188;2022-10-16T05:23:48;13.90;99.90
32865;DHT22;19219;44.500;11.188;2022-10-16T05:26:14;13.80;99.90
32865;DHT22;19219;44.500;11.188;2022-10-16T05:28:40;13.80;99.90
32865;DHT22;19219;44.500;11.188;2022-10-16T05:31:06;13.80;99.90
32865;DHT22;19219;44.500;11.188;2022-10-16T05:33:32;13.70;99.90
32865;DHT22;19219;44.500;11.188;2022-10-16T05:36:06;13.70;99.90
32865;DHT22;19219;44.500;11.188;2022-10-16T05:38:36;13.70;99.90
32865;DHT22;19219;44.500;11.188;2022-10-16T05:41:02;13.70;99.90
32865;DHT22;19219;44.500;11.188;2022-10-16T05:43:29;13.70;99.90
32865;DHT22;19219;44.500;11.188;2022-10-16T05:46:04;13.70;99.90
32865;DHT22;19219;44.500;11.188;2022-10-16T05:48:31;13.70;99.90
32865;DHT22;19219;44.500;11.188;2022-10-16T05:53:24;13.90;99.90
32865;DHT22;19219;44.500;11.188;2022-10-16T05:55:55;13.90;99.90
32865;DHT22;19219;44.500;11.188;2022-10-16T05:58:21;14.00;99.90
32865;DHT22;19219;44.500;11.188;2022-10-16T06:00:58;14.00;99.90
32865;DHT22;19219;44.500;11.188;2022-10-16T06:03:25;14.10;99.90
32865;DHT22;19219;44.500;11.188;2022-10-16T06:05:51;14.10;99.90
32865;DHT22;19219;44.500;11.188;2022-10-16T06:08:17;14.10;99.90
32865;DHT22;19219;44.500;11.188;2022-10-16T06:10:43;14.10;99.90
32865;DHT22;19219;44.500;11.188;2022-10-16T06:13:09;14.10;99.90
32865;DHT22;19219;44.500;11.188;2022-10-16T06:15:35;14.10;99.90
32865;DHT22;19219;44.500;11.188;2022-10-16T06:18:01;14.10;99.90
32865;DHT22;19219;44.500;11.188;2022-10-16T06:20:26;14.10;99.90
32865;DHT22;19219;44.500;11.188;2022-10-16T06:22:52;14.10;99.90
32865;DHT22;19219;44.500;11.188;2022-10-16T06:25:17;14.30;99.90
32865;DHT22;19219;44.500;11.188;2022-10-16T06:27:43;14.40;99.90
32865;DHT22;19219;44.500;11.188;2022-10-16T06:30:09;14.40;99.90
32865;DHT22;19219;44.500;11.188;2022-10-16T06:32:35;14.50;99.90
32865;DHT22;19219;44.500;11.188;2022-10-16T06:35:00;14.60;99.90
32865;DHT22;19219;44.500;11.188;2022-10-16T06:37:27;14.70;99.90
32865;DHT22;19219;44.500;11.188;2022-10-16T06:39:53;14.70;99.90
32865;DHT22;19219;44.500;11.188;2022-10-16T06:42:19;14.90;99.90
32865;DHT22;19219;44.500;11.188;2022-10-16T06:44:45;14.90;99.90
32865;DHT22;19219;44.500;11.188;2022-10-16T06:47:11;15.00;99.90
32865;DHT22;19219;44.500;11.188;2022-10-16T06:49:36;15.10;99.90
32865;DHT22;19219;44.500;11.188;2022-10-16T06:52:02;15.20;99.90
32865;DHT22;19219;44.500;11.188;2022-10-16T06:54:28;15.30;99.90
32865;DHT22;19219;44.500;11.188;2022-10-16T06:56:53;15.30;99.90
32865;DHT22;19219;44.500;11.188;2022-10-16T06:59:20;15.40;99.90
32865;DHT22;19219;44.500;11.188;2022-10-16T07:01:46;15.60;99.90
32865;DHT22;19219;44.500;11.188;2022-10-16T07:04:12;15.80;99.90
32865;DHT22;19219;44.500;11.188;2022-10-16T07:06:38;16.00;99.90
32865;DHT22;19219;44.500;11.188;2022-10-16T07:09:06;16.20;99.90
32865;DHT22;19219;44.500;11.188;2022-10-16T07:11:33;16.40;99.90
32865;DHT22;19219;44.500;11.188;2022-10-16T07:13:59;16.60;99.90
32865;DHT22;19219;44.500;11.188;2022-10-16T07:16:27;16.90;99.90
32865;DHT22;19219;44.500;11.188;2022-10-16T07:18:55;17.20;99.90
32865;DHT22;19219;44.500;11.188;2022-10-16T07:21:24;17.50;99.90
32865;DHT22;19219;44.500;11.188;2022-10-16T07:23:55;17.70;99.90
32865;DHT22;19219;44.500;11.188;2022-10-16T07:26:22;18.00;99.90
32865;DHT22;19219;44.500;11.188;2022-10-16T07:28:48;18.20;99.90
32865;DHT22;19219;44.500;11.188;2022-10-16T07:31:15;18.30;99.90
32865;DHT22;19219;44.500;11.188;2022-10-16T07:33:42;18.50;99.90
32865;DHT22;19219;44.500;11.188;2022-10-16T07:36:10;18.80;99.90
32865;DHT22;19219;44.500;11.188;2022-10-16T07:38:35;18.90;99.90
32865;DHT22;19219;44.500;11.188;2022-10-16T07:41:06;19.10;99.90
32865;DHT22;19219;44.500;11.188;2022-10-16T07:43:33;19.10;99.90
32865;DHT22;19219;44.500;11.188;2022-10-16T07:45:59;19.40;99.90
32865;DHT22;19219;44.500;11.188;2022-10-16T07:48:28;19.70;99.90
32865;DHT22;19219;44.500;11.188;2022-10-16T07:51:01;20.20;99.90
32865;DHT22;19219;44.500;11.188;2022-10-16T07:53:27;20.40;99.90
32865;DHT22;19219;44.500;11.188;2022-10-16T07:56:00;20.70;99.90
32865;DHT22;19219;44.500;11.188;2022-10-16T07:58:28;20.80;99.90
32865;DHT22;19219;44.500;11.188;2022-10-16T08:00:54;20.90;99.90
32865;DHT22;19219;44.500;11.188;2022-10-16T08:03:19;21.00;99.90
32865;DHT22;19219;44.500;11.188;2022-10-16T08:05:45;21.30;99.90
32865;DHT22;19219;44.500;11.188;2022-10-16T08:08:15;21.80;99.90
32865;DHT22;19219;44.500;11.188;2022-10-16T08:10:41;22.10;99.90
32865;DHT22;19219;44.500;11.188;2022-10-16T08:13:07;22.10;99.90
32865;DHT22;19219;44.500;11.188;2022-10-16T08:15:33;22.30;99.90
32865;DHT22;19219;44.500;11.188;2022-10-16T08:18:00;22.70;99.90
32865;DHT22;19219;44.500;11.188;2022-10-16T08:20:27;22.70;99.90
32865;DHT22;19219;44.500;11.188;2022-10-16T08:22:53;22.50;99.90
32865;DHT22;19219;44.500;11.188;2022-10-16T08:25:20;22.50;99.90
32865;DHT22;19219;44.500;11.188;2022-10-16T08:27:46;22.70;99.90
32865;DHT22;19219;44.500;11.188;2022-10-16T08:30:12;23.20;99.90
32865;DHT22;19219;44.500;11.188;2022-10-16T08:32:39;23.50;99.90
32865;DHT22;19219;44.500;11.188;2022-10-16T08:35:05;23.40;99.90
32865;DHT22;19219;44.500;11.188;2022-10-16T08:37:31;23.20;99.90
32865;DHT22;19219;44.500;11.188;2022-10-16T08:39:58;23.40;99.90
32865;DHT22;19219;44.500;11.188;2022-10-16T08:50:41;24.20;99.90
32865;DHT22;19219;44.500;11.188;2022-10-16T08:53:07;24.70;99.90
32865;DHT22;19219;44.500;11.188;2022-10-16T08:56:08;25.10;99.90
32865;DHT22;19219;44.500;11.188;2022-10-16T08:58:28;25.00;99.90
32865;DHT22;19219;44.500;11.188;2022-10-16T09:01:13;25.40;99.90
32865;DHT22;19219;44.500;11.188;2022-10-16T09:06:57;25.50;99.90
32865;DHT22;19219;44.500;11.188;2022-10-16T09:09:38;25.70;99.90
32865;DHT22;19219;44.500;11.188;2022-10-16T09:20:44;26.40;99.90
32865;DHT22;19219;44.500;11.188;2022-10-16T09:25:48;25.50;99.90
32865;DHT22;19219;44.500;11.188;2022-10-16T09:28:16;25.70;99.90
32865;DHT22;19219;44.500;11.188;2022-10-16T09:30:42;26.10;99.90
32865;DHT22;19219;44.500;11.188;2022-10-16T09:33:09;26.00;99.90
32865;DHT22;19219;44.500;11.188;2022-10-16T09:38:07;26.10;99.90
32865;DHT22;19219;44.500;11.188;2022-10-16T09:40:35;25.90;99.90
32865;DHT22;19219;44.500;11.188;2022-10-16T09:48:49;25.40;99.90
32865;DHT22;19219;44.500;11.188;2022-10-16T09:51:25;25.70;99.90
32865;DHT22;19219;44.500;11.188;2022-10-16T09:54:16;26.00;99.90
32865;DHT22;19219;44.500;11.188;2022-10-16T09:56:43;26.30;99.90
32865;DHT22;19219;44.500;11.188;2022-10-16T09:59:12;26.10;99.90
32865;DHT22;19219;44.500;11.188;2022-10-16T10:01:40;26.40;99.90
32865;DHT22;19219;44.500;11.188;2022-10-16T10:04:07;26.50;99.90
32865;DHT22;19219;44.500;11.188;2022-10-16T10:06:35;26.70;99.90
32865;DHT22;19219;44.500;11.188;2022-10-16T10:09:04;26.50;99.90
32865;DHT22;19219;44.500;11.188;2022-10-16T10:11:55;26.30;99.90
32865;DHT22;19219;44.500;11.188;2022-10-16T10:14:48;25.90;99.90
32865;DHT22;19219;44.500;11.188;2022-10-16T10:17:18;25.80;99.90
32865;DHT22;19219;44.500;11.188;2022-10-16T10:19:55;25.90;99.90
32865;DHT22;19219;44.500;11.188;2022-10-16T10:22:41;26.10;99.90
32865;DHT22;19219;44.500;11.188;2022-10-16T10:33:52;26.70;99.90
32865;DHT22;19219;44.500;11.188;2022-10-16T10:36:28;26.50;99.90
32865;DHT22;19219;44.500;11.188;2022-10-16T10:47:40;26.70;99.90
32865;DHT22;19219;44.500;11.188;2022-10-16T11:06:19;26.70;99.90
32865;DHT22;19219;44.500;11.188;2022-10-16T11:09:20;26.60;99.90
32865;DHT22;19219;44.500;11.188;2022-10-16T11:11:52;26.50;99.90
32865;DHT22;19219;44.500;11.188;2022-10-16T11:14:23;26.50;99.90
32865;DHT22;19219;44.500;11.188;2022-10-16T11:17:00;26.30;99.90
32865;DHT22;19219;44.500;11.188;2022-10-16T11:20:00;25.90;99.90
32865;DHT22;19219;44.500;11.188;2022-10-16T11:22:38;26.00;99.90
32865;DHT22;19219;44.500;11.188;2022-10-16T11:25:36;25.90;99.90
32865;DHT22;19219;44.500;11.188;2022-10-16T11:33:42;25.90;99.90
32865;DHT22;19219;44.500;11.188;2022-10-16T11:36:15;25.80;99.90
32865;DHT22;19219;44.500;11.188;2022-10-16T11:41:37;25.60;99.90
32865;DHT22;19219;44.500;11.188;2022-10-16T11:47:19;25.40;99.90
32865;DHT22;19219;44.500;11.188;2022-10-16T11:49:53;25.50;99.90
32865;DHT22;19219;44.500;11.188;2022-10-16T11:53:28;25.20;99.90
32865;DHT22;19219;44.500;11.188;2022-10-16T11:55:39;25.40;99.90
32865;DHT22;19219;44.500;11.188;2022-10-16T11:58:16;25.30;99.90
32865;DHT22;19219;44.500;11.188;2022-10-16T12:00:53;25.40;99.90
32865;DHT22;19219;44.500;11.188;2022-10-16T12:03:27;25.50;99.90
32865;DHT22;19219;44.500;11.188;2022-10-16T12:08:37;25.70;99.90
32865;DHT22;19219;44.500;11.188;2022-10-16T12:11:19;25.70;99.90
32865;DHT22;19219;44.500;11.188;2022-10-16T12:13:45;25.50;99.90
32865;DHT22;19219;44.500;11.188;2022-10-16T12:18:44;25.50;99.90
32865;DHT22;19219;44.500;11.188;2022-10-16T12:21:11;25.60;99.90
32865;DHT22;19219;44.500;11.188;2022-10-16T12:23:56;25.60;99.90
32865;DHT22;19219;44.500;11.188;2022-10-16T12:26:32;25.20;99.90
32865;DHT22;19219;44.500;11.188;2022-10-16T12:29:23;25.20;99.90
32865;DHT22;19219;44.500;11.188;2022-10-16T12:31:49;25.20;99.90
32865;DHT22;19219;44.500;11.188;2022-10-16T12:34:40;25.20;99.90
32865;DHT22;19219;44.500;11.188;2022-10-16T12:37:14;25.30;99.90
32865;DHT22;19219;44.500;11.188;2022-10-16T12:39:44;25.30;99.90
32865;DHT22;19219;44.500;11.188;2022-10-16T12:44:48;25.20;99.90
32865;DHT22;19219;44.500;11.188;2022-10-16T12:49:58;25.30;99.90
32865;DHT22;19219;44.500;11.188;2022-10-16T12:52:36;25.30;99.90
32865;DHT22;19219;44.500;11.188;2022-10-16T12:55:04;25.30;99.90
32865;DHT22;19219;44.500;11.188;2022-10-16T12:58:00;25.20;99.90
32865;DHT22;19219;44.500;11.188;2022-10-16T13:00:48;25.20;99.90
32865;DHT22;19219;44.500;11.188;2022-10-16T13:19:38;25.20;99.90
32865;DHT22;19219;44.500;11.188;2022-10-16T13:22:26;25.20;99.90
32865;DHT22;19219;44.500;11.188;2022-10-16T13:28:00;25.10;99.90
32865;DHT22;19219;44.500;11.188;2022-10-16T13:30:29;25.20;99.90
32865;DHT22;19219;44.500;11.188;2022-10-16T13:33:06;25.20;99.90
32865;DHT22;19219;44.500;11.188;2022-10-16T13:35:34;25.10;99.90
32865;DHT22;19219;44.500;11.188;2022-10-16T13:38:20;25.20;99.90
32865;DHT22;19219;44.500;11.188;2022-10-16T13:40:56;25.20;99.90
32865;DHT22;19219;44.500;11.188;2022-10-16T13:43:29;25.20;99.90
32865;DHT22;19219;44.500;11.188;2022-10-16T13:46:03;25.30;99.90
32865;DHT22;19219;44.500;11.188;2022-10-16T13:48:30;25.30;99.90
32865;DHT22;19219;44.500;11.188;2022-10-16T13:51:14;25.20;99.90
32865;DHT22;19219;44.500;11.188;2022-10-16T13:53:40;25.10;99.90
32865;DHT22;19219;44.500;11.188;2022-10-16T13:56:12;25.00;99.90
32865;DHT22;19219;44.500;11.188;2022-10-16T13:58:39;25.00;99.90
32865;DHT22;19219;44.500;11.188;2022-10-16T14:01:20;25.10;99.90
32865;DHT22;19219;44.500;11.188;2022-10-16T14:03:49;25.10;99.90
32865;DHT22;19219;44.500;11.188;2022-10-16T14:06:18;25.10;99.90
32865;DHT22;19219;44.500;11.188;2022-10-16T14:11:31;24.90;99.90
32865;DHT22;19219;44.500;11.188;2022-10-16T14:13:58;24.80;99.90
32865;DHT22;19219;44.500;11.188;2022-10-16T14:16:27;24.70;99.90
32865;DHT22;19219;44.500;11.188;2022-10-16T14:19:02;24.60;99.90
32865;DHT22;19219;44.500;11.188;2022-10-16T14:21:30;24.50;99.90
32865;DHT22;19219;44.500;11.188;2022-10-16T14:23:57;24.40;99.90
32865;DHT22;19219;44.500;11.188;2022-10-16T14:26:27;24.30;99.90
32865;DHT22;19219;44.500;11.188;2022-10-16T14:29:14;24.30;99.90
32865;DHT22;19219;44.500;11.188;2022-10-16T14:31:40;24.30;99.90
32865;DHT22;19219;44.500;11.188;2022-10-16T14:34:32;24.30;99.90
32865;DHT22;19219;44.500;11.188;2022-10-16T14:37:10;24.30;99.90
32865;DHT22;19219;44.500;11.188;2022-10-16T14:39:39;24.40;99.90
32865;DHT22;19219;44.500;11.188;2022-10-16T14:42:14;24.40;99.90
32865;DHT22;19219;44.500;11.188;2022-10-16T14:44:42;24.40;99.90
32865;DHT22;19219;44.500;11.188;2022-10-16T14:47:10;24.40;99.90
32865;DHT22;19219;44.500;11.188;2022-10-16T14:49:38;24.40;99.90
32865;DHT22;19219;44.500;11.188;2022-10-16T14:52:09;24.50;99.90
32865;DHT22;19219;44.500;11.188;2022-10-16T14:54:35;24.50;99.90
32865;DHT22;19219;44.500;11.188;2022-10-16T14:57:01;24.40;99.90
32865;DHT22;19219;44.500;11.188;2022-10-16T14:59:40;24.40;99.90
32865;DHT22;19219;44.500;11.188;2022-10-16T15:04:48;24.30;99.90
32865;DHT22;19219;44.500;11.188;2022-10-16T15:07:14;24.30;99.90
32865;DHT22;19219;44.500;11.188;2022-10-16T15:09:39;24.20;99.90
32865;DHT22;19219;44.500;11.188;2022-10-16T15:12:05;24.20;99.90
32865;DHT22;19219;44.500;11.188;2022-10-16T15:14:32;24.10;99.90
32865;DHT22;19219;44.500;11.188;2022-10-16T15:16:58;24.20;99.90
32865;DHT22;19219;44.500;11.188;2022-10-16T15:19:23;24.10;99.90
32865;DHT22;19219;44.500;11.188;2022-10-16T15:21:49;24.10;99.90
32865;DHT22;19219;44.500;11.188;2022-10-16T15:24:17;24.10;99.90
32865;DHT22;19219;44.500;11.188;2022-10-16T15:26:43;24.00;99.90
32865;DHT22;19219;44.500;11.188;2022-10-16T15:29:11;24.00;99.90
32865;DHT22;19219;44.500;11.188;2022-10-16T15:31:37;24.00;99.90
32865;DHT22;19219;44.500;11.188;2022-10-16T15:34:03;24.00;99.90
32865;DHT22;19219;44.500;11.188;2022-10-16T15:36:32;23.90;99.90
32865;DHT22;19219;44.500;11.188;2022-10-16T15:39:06;23.90;99.90
32865;DHT22;19219;44.500;11.188;2022-10-16T15:41:36;23.80;99.90
32865;DHT22;19219;44.500;11.188;2022-10-16T15:44:01;23.80;99.90
32865;DHT22;19219;44.500;11.188;2022-10-16T15:46:27;23.80;99.90
32865;DHT22;19219;44.500;11.188;2022-10-16T15:48:57;23.80;99.90
32865;DHT22;19219;44.500;11.188;2022-10-16T15:51:23;23.70;99.90
32865;DHT22;19219;44.500;11.188;2022-10-16T15:53:49;23.70;99.90
32865;DHT22;19219;44.500;11.188;2022-10-16T15:56:16;23.60;99.90
32865;DHT22;19219;44.500;11.188;2022-10-16T15:58:43;23.60;99.90
32865;DHT22;19219;44.500;11.188;2022-10-16T16:01:09;23.50;99.90
32865;DHT22;19219;44.500;11.188;2022-10-16T16:03:36;23.40;99.90
32865;DHT22;19219;44.500;11.188;2022-10-16T16:06:08;23.30;99.90
32865;DHT22;19219;44.500;11.188;2022-10-16T16:08:35;23.20;99.90
32865;DHT22;19219;44.500;11.188;2022-10-16T16:11:06;23.10;99.90
32865;DHT22;19219;44.500;11.188;2022-10-16T16:13:32;23.00;99.90
32865;DHT22;19219;44.500;11.188;2022-10-16T16:15:58;22.90;99.90
32865;DHT22;19219;44.500;11.188;2022-10-16T16:18:24;22.80;99.90
32865;DHT22;19219;44.500;11.188;2022-10-16T16:20:51;22.80;99.90
32865;DHT22;19219;44.500;11.188;2022-10-16T16:23:16;22.80;99.90
32865;DHT22;19219;44.500;11.188;2022-10-16T16:25:42;22.70;99.90
32865;DHT22;19219;44.500;11.188;2022-10-16T16:28:09;22.70;99.90
32865;DHT22;19219;44.500;11.188;2022-10-16T16:30:36;22.60;99.90
32865;DHT22;19219;44.500;11.188;2022-10-16T16:33:02;22.50;99.90
32865;DHT22;19219;44.500;11.188;2022-10-16T16:35:28;22.60;99.90
32865;DHT22;19219;44.500;11.188;2022-10-16T16:37:54;22.50;99.90
32865;DHT22;19219;44.500;11.188;2022-10-16T16:40:20;22.40;99.90
32865;DHT22;19219;44.500;11.188;2022-10-16T16:42:48;22.40;99.90
32865;DHT22;19219;44.500;11.188;2022-10-16T16:45:13;22.30;99.90
32865;DHT22;19219;44.500;11.188;2022-10-16T16:47:39;22.30;99.90
32865;DHT22;19219;44.500;11.188;2022-10-16T16:50:06;22.20;99.90
32865;DHT22;19219;44.500;11.188;2022-10-16T16:52:34;22.20;99.90
32865;DHT22;19219;44.500;11.188;2022-10-16T16:54:59;22.20;99.90
32865;DHT22;19219;44.500;11.188;2022-10-16T16:57:25;22.20;99.90
32865;DHT22;19219;44.500;11.188;2022-10-16T16:59:51;22.00;99.90
32865;DHT22;19219;44.500;11.188;2022-10-16T17:02:17;21.90;99.90
32865;DHT22;19219;44.500;11.188;2022-10-16T17:04:43;21.80;99.90
32865;DHT22;19219;44.500;11.188;2022-10-16T17:07:08;21.80;99.90
32865;DHT22;19219;44.500;11.188;2022-10-16T17:09:34;21.80;99.90
32865;DHT22;19219;44.500;11.188;2022-10-16T17:12:00;21.80;99.90
32865;DHT22;19219;44.500;11.188;2022-10-16T17:14:26;21.70;99.90
32865;DHT22;19219;44.500;11.188;2022-10-16T17:16:52;21.60;99.90
32865;DHT22;19219;44.500;11.188;2022-10-16T17:19:19;21.50;99.90
32865;DHT22;19219;44.500;11.188;2022-10-16T17:21:48;21.50;99.90
32865;DHT22;19219;44.500;11.188;2022-10-16T17:24:13;21.40;99.90
32865;DHT22;19219;44.500;11.188;2022-10-16T17:26:39;21.40;99.90
32865;DHT22;19219;44.500;11.188;2022-10-16T17:29:11;21.40;99.90
32865;DHT22;19219;44.500;11.188;2022-10-16T17:31:36;21.30;99.90
32865;DHT22;19219;44.500;11.188;2022-10-16T17:34:04;21.30;99.90
32865;DHT22;19219;44.500;11.188;2022-10-16T17:36:33;21.20;99.90
32865;DHT22;19219;44.500;11.188;2022-10-16T17:39:00;21.20;99.90
32865;DHT22;19219;44.500;11.188;2022-10-16T17:41:28;21.20;99.90
32865;DHT22;19219;44.500;11.188;2022-10-16T17:43:54;21.10;99.90